Time;durP1;ratioP1;P1;durP2;ratioP2;P2;SDS_P1;SDS_P2;PMS_P1;PMS_P2;Temp;Humidity;BMP_temperature;BMP_pressure;BME280_temperature;BME280_humidity;BME280_pressure;Samples;Min_cycle;Max_cycle;Signal;HPM_P1;HPM_P2
2021/06/09 00:00:57;;;;;;;10.48;8.77;;;16.10;81.80;;;;;;5070413;28;20067;-54
2021/06/09 00:03:23;;;;;;;16.88;9.43;;;16.00;82.20;;;;;;5069541;28;20045;-54
2021/06/09 00:05:50;;;;;;;12.13;9.18;;;15.90;82.40;;;;;;5064648;28;20049;-54
2021/06/09 00:08:18;;;;;;;12.02;9.00;;;15.90;82.80;;;;;;5068617;28;20040;-52
2021/06/09 00:10:48;;;;;;;14.48;10.60;;;15.90;83.60;;;;;;5079348;28;20110;-54
2021/06/09 00:13:15;;;;;;;12.32;9.52;;;15.80;83.50;;;;;;5067043;28;20041;-55
2021/06/09 00:15:40;;;;;;;14.18;10.00;;;15.80;83.20;;;;;;5066589;28;20072;-54
2021/06/09 00:18:06;;;;;;;11.30;9.60;;;15.90;82.90;;;;;;5065945;28;20079;-55
2021/06/09 00:20:32;;;;;;;12.60;9.35;;;15.80;83.30;;;;;;5067946;28;20454;-54
2021/06/09 00:22:58;;;;;;;14.32;10.02;;;15.80;83.60;;;;;;5073495;28;20514;-55
2021/06/09 00:25:24;;;;;;;13.18;10.20;;;15.80;83.50;;;;;;5064900;28;20572;-52
2021/06/09 00:27:54;;;;;;;13.02;10.07;;;15.70;83.30;;;;;;5067285;28;20428;-53
2021/06/09 00:30:31;;;;;;;13.27;9.95;;;15.80;83.50;;;;;;5061489;28;20059;-55
2021/06/09 00:33:00;;;;;;;12.43;10.13;;;15.80;83.50;;;;;;5071450;28;20758;-54
2021/06/09 00:35:27;;;;;;;13.02;9.10;;;15.80;83.30;;;;;;5070547;28;20432;-54
2021/06/09 00:37:53;;;;;;;12.75;9.90;;;15.80;83.70;;;;;;5085011;28;20446;-55
2021/06/09 00:40:20;;;;;;;13.20;9.60;;;15.80;83.60;;;;;;5086593;28;20392;-53
2021/06/09 00:43:09;;;;;;;13.38;9.95;;;15.80;83.70;;;;;;5037653;28;20052;-54
2021/06/09 00:45:43;;;;;;;11.68;9.48;;;15.80;83.90;;;;;;5063946;28;20041;-55
2021/06/09 00:48:12;;;;;;;13.05;10.13;;;15.80;83.50;;;;;;5073261;28;20036;-53
2021/06/09 00:50:38;;;;;;;13.18;9.50;;;15.80;83.80;;;;;;5072598;28;20040;-52
2021/06/09 00:55:49;;;;;;;15.52;10.45;;;15.80;83.90;;;;;;5073525;28;20097;-53
2021/06/09 00:58:16;;;;;;;12.82;10.30;;;15.70;84.10;;;;;;5073742;28;20033;-54
2021/06/09 01:00:42;;;;;;;12.27;10.07;;;15.70;83.80;;;;;;5067249;28;20122;-52
2021/06/09 01:03:09;;;;;;;12.77;10.60;;;15.70;84.40;;;;;;5089798;28;20424;-53
2021/06/09 01:05:35;;;;;;;13.52;10.57;;;15.70;84.30;;;;;;5055665;28;20098;-53
2021/06/09 01:08:21;;;;;;;14.68;10.50;;;15.80;84.20;;;;;;5044649;28;20076;-54
2021/06/09 01:10:51;;;;;;;13.75;10.75;;;15.70;84.80;;;;;;5071417;28;20106;-54
2021/06/09 01:13:26;;;;;;;13.98;10.70;;;15.70;84.50;;;;;;5055619;28;20041;-54
2021/06/09 01:15:55;;;;;;;12.88;10.00;;;15.60;85.50;;;;;;5072627;28;20040;-55
2021/06/09 01:18:21;;;;;;;13.80;10.77;;;15.50;85.00;;;;;;5073247;28;20048;-54
2021/06/09 01:20:47;;;;;;;13.75;10.32;;;15.50;85.70;;;;;;5073872;28;20443;-54
2021/06/09 01:23:17;;;;;;;14.50;11.60;;;15.60;85.40;;;;;;5090360;28;20119;-54
2021/06/09 01:25:44;;;;;;;14.63;11.40;;;15.50;85.80;;;;;;5081502;28;20325;-54
2021/06/09 01:28:11;;;;;;;12.05;10.60;;;15.50;85.90;;;;;;5072946;28;20048;-54
2021/06/09 01:30:38;;;;;;;16.02;11.10;;;15.50;85.80;;;;;;5077069;28;20536;-54
2021/06/09 01:33:05;;;;;;;15.93;11.35;;;15.50;86.10;;;;;;5057195;28;20079;-53
2021/06/09 01:35:31;;;;;;;13.38;10.65;;;15.50;86.10;;;;;;5071043;28;20036;-54
2021/06/09 01:37:58;;;;;;;15.32;11.15;;;15.50;86.40;;;;;;5052953;28;20052;-54
2021/06/09 01:40:27;;;;;;;14.63;11.18;;;15.40;86.40;;;;;;5063289;28;20086;-53
2021/06/09 01:42:54;;;;;;;13.82;11.63;;;15.40;86.70;;;;;;5081283;28;20047;-54
2021/06/09 01:45:39;;;;;;;14.60;10.90;;;15.40;87.00;;;;;;5081582;28;20491;-54
2021/06/09 01:48:09;;;;;;;17.15;11.85;;;15.40;87.00;;;;;;5069160;28;20408;-54
2021/06/09 01:50:36;;;;;;;14.07;10.68;;;15.20;87.00;;;;;;5062085;28;20068;-52
2021/06/09 01:53:03;;;;;;;18.73;12.15;;;15.20;87.40;;;;;;5059253;28;20048;-53
2021/06/09 01:55:32;;;;;;;17.27;11.18;;;15.20;88.00;;;;;;5079916;28;20044;-54
2021/06/09 01:57:57;;;;;;;14.45;11.75;;;15.10;87.90;;;;;;5056014;28;20498;-54
2021/06/09 02:00:27;;;;;;;14.27;11.32;;;15.10;88.40;;;;;;5059369;28;20071;-54
2021/06/09 02:02:58;;;;;;;15.27;11.52;;;15.00;88.30;;;;;;5072131;28;20044;-55
2021/06/09 02:05:31;;;;;;;17.38;12.00;;;15.00;88.30;;;;;;5071378;28;20492;-53
2021/06/09 02:07:58;;;;;;;;;;;14.90;88.90;;;;;;5064770;28;20048;-50
2021/06/09 02:10:24;;;;;;;14.65;11.82;;;14.90;89.00;;;;;;5070977;28;20414;-54
2021/06/09 02:12:58;;;;;;;16.48;12.50;;;14.80;89.20;;;;;;5076655;28;20039;-54
2021/06/09 02:15:25;;;;;;;15.75;12.02;;;14.80;89.40;;;;;;5079820;28;20044;-54
2021/06/09 02:17:56;;;;;;;16.60;12.23;;;14.80;89.60;;;;;;5053528;28;20116;-54
2021/06/09 02:20:28;;;;;;;14.90;11.82;;;14.70;89.80;;;;;;5077454;28;20043;-54
2021/06/09 02:22:55;;;;;;;15.40;11.77;;;14.70;90.00;;;;;;5072247;28;20049;-53
2021/06/09 02:25:21;;;;;;;15.35;12.02;;;14.70;90.10;;;;;;5059472;28;20436;-55
2021/06/09 02:27:48;;;;;;;16.30;12.32;;;14.60;90.20;;;;;;5065103;28;20039;-51
2021/06/09 02:30:17;;;;;;;15.70;11.93;;;14.60;90.20;;;;;;5058567;28;20072;-52
2021/06/09 02:32:58;;;;;;;;;;;14.60;90.30;;;;;;5067841;28;20055;-53
2021/06/09 02:35:24;;;;;;;17.48;12.27;;;14.60;90.30;;;;;;5055680;28;20019;-52
2021/06/09 02:37:51;;;;;;;14.57;12.00;;;14.60;90.30;;;;;;5070701;28;20039;-52
2021/06/09 02:40:19;;;;;;;15.70;11.98;;;14.50;90.50;;;;;;5071240;28;20036;-53
2021/06/09 02:42:46;;;;;;;15.90;12.40;;;14.50;90.50;;;;;;5076423;28;20040;-52
2021/06/09 02:45:15;;;;;;;16.88;12.75;;;14.50;90.60;;;;;;5057385;28;20036;-49
2021/06/09 02:47:45;;;;;;;15.52;12.57;;;14.50;90.60;;;;;;5075852;28;20055;-50
2021/06/09 02:50:31;;;;;;;16.45;12.85;;;14.50;90.70;;;;;;5083123;28;20079;-51
2021/06/09 02:53:21;;;;;;;16.75;12.40;;;14.50;90.80;;;;;;5083684;28;20483;-52
2021/06/09 02:56:33;;;;;;;17.23;12.95;;;14.50;90.80;;;;;;5053941;28;20605;-52
2021/06/09 02:59:22;;;;;;;16.27;12.88;;;14.50;91.20;;;;;;5061808;28;20040;-53
2021/06/09 03:02:26;;;;;;;19.83;13.10;;;14.50;90.80;;;;;;5067843;28;20037;-52
2021/06/09 03:04:56;;;;;;;16.95;13.20;;;14.40;91.00;;;;;;5063635;28;20045;-50
2021/06/09 03:07:54;;;;;;;17.38;13.10;;;14.40;91.00;;;;;;5071935;28;20435;-51
2021/06/09 03:10:44;;;;;;;16.80;12.27;;;14.40;90.90;;;;;;5056828;28;20044;-52
2021/06/09 03:13:29;;;;;;;15.68;12.82;;;14.40;91.10;;;;;;5074010;28;20414;-53
2021/06/09 03:16:09;;;;;;;18.35;13.27;;;14.30;91.20;;;;;;5084082;28;20043;-52
2021/06/09 03:18:46;;;;;;;16.75;13.10;;;14.30;91.10;;;;;;5095538;28;20043;-51
2021/06/09 03:21:26;;;;;;;15.25;12.38;;;14.30;91.20;;;;;;5067845;28;20121;-53
2021/06/09 03:24:13;;;;;;;13.63;10.70;;;14.30;91.30;;;;;;5065093;28;20073;-50
2021/06/09 03:27:13;;;;;;;16.60;12.55;;;14.30;91.20;;;;;;5061569;28;20086;-51
2021/06/09 03:29:52;;;;;;;15.93;12.85;;;14.20;91.20;;;;;;5091766;28;20032;-50
2021/06/09 03:32:26;;;;;;;16.13;13.05;;;14.30;91.30;;;;;;5085009;28;20405;-52
2021/06/09 03:35:01;;;;;;;16.90;13.57;;;14.30;91.40;;;;;;5070543;28;20109;-50
2021/06/09 03:37:30;;;;;;;15.30;11.43;;;14.30;91.30;;;;;;5061299;28;20059;-53
2021/06/09 03:40:00;;;;;;;13.85;10.98;;;14.30;91.30;;;;;;5083383;28;20041;-50
2021/06/09 03:42:30;;;;;;;17.13;12.40;;;14.20;91.20;;;;;;5067263;28;20056;-51
2021/06/09 03:44:58;;;;;;;14.50;10.98;;;14.20;91.10;;;;;;5074125;28;20048;-51
2021/06/09 03:47:25;;;;;;;13.35;10.75;;;14.20;91.10;;;;;;5072772;28;20471;-49
2021/06/09 03:49:53;;;;;;;14.48;10.65;;;14.20;90.90;;;;;;5068491;28;20135;-52
2021/06/09 03:52:21;;;;;;;14.52;11.70;;;14.20;90.90;;;;;;5064781;28;20194;-54
2021/06/09 03:54:53;;;;;;;14.27;11.10;;;14.20;90.90;;;;;;5062885;28;20127;-50
2021/06/09 03:57:42;;;;;;;14.98;12.23;;;14.20;90.90;;;;;;5071712;28;20518;-55
2021/06/09 04:00:09;;;;;;;18.42;13.32;;;14.20;91.00;;;;;;5054655;28;20093;-52
2021/06/09 04:02:36;;;;;;;19.80;13.90;;;14.20;91.40;;;;;;5071633;28;20032;-50
2021/06/09 04:05:06;;;;;;;19.83;14.25;;;14.20;91.60;;;;;;5064351;28;20045;-50
2021/06/09 04:07:33;;;;;;;17.13;14.30;;;14.20;91.60;;;;;;5060698;28;20496;-52
2021/06/09 04:10:12;;;;;;;18.38;13.68;;;14.30;91.50;;;;;;5070482;28;20402;-52
2021/06/09 04:12:39;;;;;;;15.75;12.35;;;14.30;91.50;;;;;;5068822;28;20036;-52
2021/06/09 04:15:09;;;;;;;17.40;12.65;;;14.30;91.50;;;;;;5069200;28;20409;-52
2021/06/09 04:17:38;;;;;;;19.70;13.88;;;14.30;91.40;;;;;;5073716;28;20052;-52
2021/06/09 04:20:10;;;;;;;20.13;14.85;;;14.40;91.60;;;;;;5067620;28;20041;-50
2021/06/09 04:22:37;;;;;;;19.13;14.35;;;14.40;91.70;;;;;;5079190;28;20101;-49
2021/06/09 04:25:08;;;;;;;19.05;15.02;;;14.50;91.60;;;;;;5071760;28;20055;-53
2021/06/09 04:27:39;;;;;;;16.15;12.32;;;14.50;91.60;;;;;;5075598;28;20045;-52
2021/06/09 04:30:06;;;;;;;18.42;13.13;;;14.50;91.50;;;;;;5073537;28;20039;-48
2021/06/09 04:32:57;;;;;;;16.70;13.02;;;14.50;91.30;;;;;;5070969;28;20044;-51
2021/06/09 04:35:50;;;;;;;17.03;13.13;;;14.50;91.20;;;;;;5075375;28;20045;-49
2021/06/09 04:38:18;;;;;;;16.00;12.35;;;14.50;91.20;;;;;;5068061;28;20052;-49
2021/06/09 04:40:45;;;;;;;17.48;13.70;;;14.50;91.00;;;;;;5068976;28;20043;-52
2021/06/09 04:43:11;;;;;;;17.92;13.80;;;14.60;91.10;;;;;;5084827;28;20152;-48
2021/06/09 04:45:37;;;;;;;14.60;12.48;;;14.60;91.20;;;;;;5069675;28;20045;-49
2021/06/09 04:48:10;;;;;;;16.17;13.38;;;14.60;91.20;;;;;;5076990;28;20530;-49
2021/06/09 04:50:36;;;;;;;17.73;13.65;;;14.70;91.30;;;;;;5073058;28;20043;-50
2021/06/09 04:53:11;;;;;;;20.70;13.88;;;14.70;91.40;;;;;;5077624;28;20040;-50
2021/06/09 04:55:51;;;;;;;19.10;14.45;;;14.80;91.50;;;;;;5068647;28;20544;-51
2021/06/09 04:58:21;;;;;;;18.58;14.30;;;14.90;91.50;;;;;;5063682;28;20489;-52
2021/06/09 05:00:47;;;;;;;19.95;13.88;;;15.00;91.50;;;;;;5083755;28;20036;-51
2021/06/09 05:03:15;;;;;;;17.90;14.48;;;15.10;91.60;;;;;;5075056;28;20032;-52
2021/06/09 05:05:42;;;;;;;16.60;13.85;;;15.30;91.70;;;;;;5085933;28;20048;-49
2021/06/09 05:08:08;;;;;;;16.42;13.65;;;15.50;91.60;;;;;;5077943;28;20503;-49
2021/06/09 05:10:35;;;;;;;18.60;13.90;;;15.70;91.30;;;;;;5080162;28;20455;-51
2021/06/09 05:13:25;;;;;;;17.73;14.10;;;16.00;91.00;;;;;;5062562;28;20106;-52
2021/06/09 05:15:54;;;;;;;18.52;13.70;;;16.30;90.50;;;;;;5077201;28;20287;-52
2021/06/09 05:18:26;;;;;;;15.23;13.30;;;16.50;90.10;;;;;;5085567;28;20040;-50
2021/06/09 05:20:53;;;;;;;15.77;12.82;;;16.80;89.10;;;;;;5069238;28;20549;-50
2021/06/09 05:23:33;;;;;;;17.73;13.70;;;17.00;88.70;;;;;;5088022;28;20063;-52
2021/06/09 05:26:01;;;;;;;18.15;13.82;;;17.20;86.80;;;;;;5067100;28;20036;-53
2021/06/09 05:28:32;;;;;;;18.73;13.48;;;17.40;86.40;;;;;;5068803;28;20530;-52
2021/06/09 05:30:59;;;;;;;15.43;12.85;;;17.60;85.20;;;;;;5073729;28;20046;-53
2021/06/09 05:33:27;;;;;;;16.52;13.15;;;17.80;85.20;;;;;;5059217;28;20064;-52
2021/06/09 05:35:56;;;;;;;17.50;13.80;;;18.00;84.70;;;;;;5056372;28;20131;-52
2021/06/09 05:38:24;;;;;;;17.58;13.50;;;18.10;83.40;;;;;;5083201;28;20047;-53
2021/06/09 05:40:51;;;;;;;20.25;13.75;;;18.30;81.60;;;;;;5064290;28;20071;-53
2021/06/09 05:43:22;;;;;;;16.58;13.38;;;18.50;80.80;;;;;;5074157;28;20036;-53
2021/06/09 05:45:49;;;;;;;16.50;13.07;;;18.60;79.50;;;;;;5088755;28;20051;-55
2021/06/09 05:48:17;;;;;;;18.88;13.13;;;18.70;78.50;;;;;;5072949;28;20127;-53
2021/06/09 05:50:50;;;;;;;21.15;14.32;;;18.80;78.70;;;;;;5087856;28;20561;-53
2021/06/09 05:53:15;;;;;;;16.90;13.20;;;19.10;78.30;;;;;;5083033;28;20044;-54
2021/06/09 05:55:41;;;;;;;16.13;13.57;;;19.40;76.90;;;;;;5072115;28;20040;-56
2021/06/09 05:58:07;;;;;;;16.65;13.02;;;19.50;76.20;;;;;;5067978;28;20032;-54
2021/06/09 06:00:33;;;;;;;16.05;12.65;;;19.70;75.50;;;;;;5062944;28;20051;-53
2021/06/09 06:03:04;;;;;;;16.63;13.13;;;19.80;74.90;;;;;;5062852;28;20041;-53
2021/06/09 06:05:35;;;;;;;16.23;13.52;;;19.80;75.40;;;;;;5083458;28;20465;-54
2021/06/09 06:08:02;;;;;;;18.00;13.35;;;19.70;75.80;;;;;;5081044;28;20385;-50
2021/06/09 06:10:28;;;;;;;15.65;13.95;;;19.50;75.40;;;;;;5051120;28;20090;-54
2021/06/09 06:12:57;;;;;;;21.80;14.52;;;19.40;75.70;;;;;;5069689;28;20484;-52
2021/06/09 06:15:24;;;;;;;18.13;13.75;;;19.30;76.80;;;;;;5066332;28;20063;-53
2021/06/09 06:17:51;;;;;;;19.00;13.98;;;19.30;77.10;;;;;;5077045;28;20108;-50
2021/06/09 06:20:25;;;;;;;17.23;13.70;;;19.30;77.70;;;;;;5072448;28;20041;-50
2021/06/09 06:22:53;;;;;;;17.73;13.93;;;19.30;78.20;;;;;;5069964;28;20058;-56
2021/06/09 06:25:24;;;;;;;16.80;14.25;;;19.30;78.50;;;;;;5076576;28;20052;-52
2021/06/09 06:27:54;;;;;;;16.40;13.50;;;19.20;79.00;;;;;;5072883;28;20061;-53
2021/06/09 06:30:22;;;;;;;16.50;13.68;;;19.20;78.80;;;;;;5073071;28;20040;-50
2021/06/09 06:32:54;;;;;;;17.73;14.27;;;19.20;78.80;;;;;;5073021;28;20553;-52
2021/06/09 06:35:26;;;;;;;17.75;13.77;;;19.30;79.10;;;;;;5072194;28;20140;-56
2021/06/09 06:37:52;;;;;;;17.38;14.77;;;19.30;79.10;;;;;;5073322;28;20048;-55
2021/06/09 06:40:19;;;;;;;19.02;14.10;;;19.30;79.30;;;;;;5061135;28;20043;-53
2021/06/09 06:42:48;;;;;;;18.92;15.10;;;19.30;79.40;;;;;;5072917;28;20036;-53
2021/06/09 06:45:15;;;;;;;18.20;14.40;;;19.40;79.50;;;;;;5068308;28;20045;-55
2021/06/09 06:47:45;;;;;;;15.77;13.82;;;19.50;79.50;;;;;;5062954;28;20041;-53
2021/06/09 06:50:13;;;;;;;15.63;13.63;;;19.50;78.30;;;;;;5072473;28;20044;-52
2021/06/09 06:52:42;;;;;;;17.33;13.98;;;19.60;76.00;;;;;;5074663;28;20036;-55
2021/06/09 06:55:11;;;;;;;16.45;14.30;;;19.60;76.00;;;;;;5072140;28;20044;-53
2021/06/09 06:57:39;;;;;;;15.77;14.07;;;19.70;76.30;;;;;;5065837;28;20037;-55
2021/06/09 07:00:12;;;;;;;18.75;14.00;;;19.70;77.00;;;;;;5067936;28;20100;-53
2021/06/09 07:02:45;;;;;;;19.55;13.40;;;19.80;77.50;;;;;;5059734;28;20055;-52
2021/06/09 07:05:12;;;;;;;17.20;13.25;;;19.90;77.30;;;;;;5080251;28;20123;-54
2021/06/09 07:07:43;;;;;;;18.92;13.13;;;20.10;75.40;;;;;;5084439;28;20045;-54
2021/06/09 07:10:17;;;;;;;16.38;13.13;;;20.20;75.30;;;;;;5074180;28;20048;-55
2021/06/09 07:12:44;;;;;;;20.52;12.68;;;20.40;76.20;;;;;;5074622;28;20056;-55
2021/06/09 07:15:20;;;;;;;17.65;13.18;;;20.60;76.20;;;;;;5060634;28;20068;-52
2021/06/09 07:17:58;;;;;;;16.17;12.70;;;20.70;74.10;;;;;;5074424;28;20032;-55
2021/06/09 07:20:26;;;;;;;18.80;12.30;;;20.90;74.50;;;;;;5068481;28;20048;-53
2021/06/09 07:22:53;;;;;;;15.20;12.88;;;21.20;73.70;;;;;;5083412;28;20036;-54
2021/06/09 07:25:22;;;;;;;16.23;13.18;;;21.30;74.10;;;;;;5088560;28;20089;-55
2021/06/09 07:27:52;;;;;;;15.23;12.65;;;21.40;73.90;;;;;;5081624;28;20036;-52
2021/06/09 07:30:20;;;;;;;17.98;13.13;;;21.60;73.60;;;;;;5080782;28;20036;-51
2021/06/09 07:32:47;;;;;;;18.63;14.02;;;21.70;73.10;;;;;;5075331;28;20040;-52
2021/06/09 07:35:15;;;;;;;15.57;13.10;;;21.80;73.00;;;;;;5083024;28;20044;-49
2021/06/09 07:37:45;;;;;;;17.02;14.32;;;21.80;73.30;;;;;;5075881;28;20418;-53
2021/06/09 07:40:17;;;;;;;15.38;13.73;;;21.90;71.80;;;;;;5063107;28;20053;-52
2021/06/09 07:42:54;;;;;;;17.30;14.65;;;22.00;73.10;;;;;;5074487;28;20044;-51
2021/06/09 07:45:23;;;;;;;16.92;15.10;;;22.10;72.90;;;;;;5087093;28;20032;-50
2021/06/09 07:47:54;;;;;;;19.00;15.20;;;22.20;72.70;;;;;;5069020;28;20040;-49
2021/06/09 07:50:32;;;;;;;19.88;16.00;;;22.30;72.30;;;;;;5063994;28;20041;-50
2021/06/09 07:53:10;;;;;;;21.02;16.02;;;22.40;71.90;;;;;;5065363;28;20104;-52
2021/06/09 07:55:41;;;;;;;21.17;16.23;;;22.50;70.60;;;;;;5086270;28;20028;-49
2021/06/09 07:58:08;;;;;;;17.20;15.43;;;22.60;71.70;;;;;;5061187;28;20071;-50
2021/06/09 08:00:37;;;;;;;19.45;15.70;;;22.70;71.60;;;;;;5064570;28;20050;-52
2021/06/09 08:03:03;;;;;;;19.88;16.23;;;22.70;71.30;;;;;;5079096;28;20033;-53
2021/06/09 08:05:30;;;;;;;19.15;17.13;;;22.80;70.10;;;;;;5060820;28;20041;-52
2021/06/09 08:07:56;;;;;;;20.55;17.40;;;23.00;70.00;;;;;;5061151;28;20044;-54
2021/06/09 08:10:23;;;;;;;24.25;16.70;;;22.90;69.60;;;;;;5062094;28;20041;-55
2021/06/09 08:12:56;;;;;;;20.27;16.90;;;23.00;69.50;;;;;;5051576;28;20071;-54
2021/06/09 08:15:31;;;;;;;17.70;15.50;;;23.00;69.60;;;;;;5062512;28;20063;-52
2021/06/09 08:17:58;;;;;;;22.60;16.52;;;23.10;70.10;;;;;;5070580;28;20041;-54
2021/06/09 08:20:25;;;;;;;19.50;16.52;;;23.10;69.20;;;;;;5060093;28;20037;-55
2021/06/09 08:22:51;;;;;;;20.15;17.50;;;23.20;69.40;;;;;;5090532;28;20043;-54
2021/06/09 08:25:23;;;;;;;18.23;16.10;;;23.20;69.00;;;;;;5085004;28;20037;-55
2021/06/09 08:27:51;;;;;;;18.20;16.10;;;23.20;68.60;;;;;;5067465;28;20069;-56
2021/06/09 08:30:18;;;;;;;19.45;17.42;;;23.30;68.40;;;;;;5088833;28;20048;-55
2021/06/09 08:32:47;;;;;;;16.58;14.68;;;23.40;67.90;;;;;;5078465;28;20064;-55
2021/06/09 08:35:15;;;;;;;20.38;16.10;;;23.40;67.90;;;;;;5065054;28;20071;-55
2021/06/09 08:37:42;;;;;;;18.88;16.15;;;23.40;67.20;;;;;;5088019;28;20055;-55
2021/06/09 08:40:10;;;;;;;16.25;14.55;;;23.50;66.40;;;;;;5089106;28;20039;-55
2021/06/09 08:42:38;;;;;;;17.77;13.80;;;23.60;66.10;;;;;;5077423;28;20056;-55
2021/06/09 08:45:07;;;;;;;15.98;13.60;;;23.60;66.00;;;;;;5043302;28;20044;-54
2021/06/09 08:47:35;;;;;;;18.23;15.77;;;23.60;65.60;;;;;;5077844;28;20127;-54
2021/06/09 08:50:05;;;;;;;16.13;14.48;;;23.60;64.40;;;;;;5077601;28;20048;-55
2021/06/09 08:52:31;;;;;;;20.70;16.40;;;23.70;65.00;;;;;;5077867;28;20059;-55
2021/06/09 08:54:59;;;;;;;18.80;16.85;;;23.70;64.60;;;;;;5075905;28;20045;-55
2021/06/09 08:57:27;;;;;;;17.55;14.90;;;23.80;64.70;;;;;;5073396;28;20444;-52
2021/06/09 08:59:53;;;;;;;18.08;14.98;;;23.80;65.00;;;;;;5078120;28;20488;-52
2021/06/09 09:02:19;;;;;;;18.48;15.65;;;23.80;64.60;;;;;;5074620;28;20130;-53
2021/06/09 09:04:45;;;;;;;18.38;16.48;;;23.90;64.20;;;;;;5076460;28;20056;-51
2021/06/09 09:07:13;;;;;;;17.95;15.90;;;24.00;65.30;;;;;;5076310;28;20048;-51
2021/06/09 09:09:40;;;;;;;17.27;15.15;;;24.00;64.20;;;;;;5083955;28;20500;-52
2021/06/09 09:12:08;;;;;;;17.48;15.68;;;24.00;64.60;;;;;;5075849;28;20059;-51
2021/06/09 09:14:35;;;;;;;17.92;16.02;;;24.00;63.90;;;;;;5075684;28;20047;-52
2021/06/09 09:17:05;;;;;;;16.95;14.48;;;24.10;64.20;;;;;;5088818;28;20043;-53
2021/06/09 09:19:34;;;;;;;14.70;13.10;;;24.20;64.20;;;;;;5076435;28;20539;-53
2021/06/09 09:22:00;;;;;;;17.30;15.50;;;24.30;62.40;;;;;;5077392;28;20449;-50
2021/06/09 09:24:40;;;;;;;17.05;15.35;;;24.30;62.80;;;;;;5044297;28;20044;-50
2021/06/09 09:27:07;;;;;;;17.00;15.27;;;24.20;62.00;;;;;;5078347;28;20487;-53
2021/06/09 09:29:34;;;;;;;16.50;14.77;;;24.10;62.50;;;;;;5076687;28;20044;-53
2021/06/09 09:32:09;;;;;;;16.30;14.60;;;24.10;62.60;;;;;;5074724;28;20039;-50
2021/06/09 09:34:43;;;;;;;16.60;14.77;;;24.20;63.40;;;;;;5067801;28;20071;-55
2021/06/09 09:37:24;;;;;;;15.95;14.25;;;24.20;62.10;;;;;;5073381;28;20036;-54
2021/06/09 09:40:15;;;;;;;15.27;13.70;;;24.40;62.10;;;;;;5070141;28;20186;-51
2021/06/09 09:42:43;;;;;;;13.27;11.88;;;24.50;62.10;;;;;;5074808;28;20040;-51
2021/06/09 09:45:29;;;;;;;16.60;13.18;;;24.60;61.40;;;;;;5083778;28;20044;-53
2021/06/09 09:48:17;;;;;;;16.02;14.25;;;24.60;61.30;;;;;;5082345;28;20307;-53
2021/06/09 09:50:46;;;;;;;15.52;13.40;;;24.70;63.10;;;;;;5061428;28;20029;-52
2021/06/09 09:53:18;;;;;;;17.27;13.63;;;24.70;61.90;;;;;;5071807;28;20523;-53
2021/06/09 09:56:09;;;;;;;14.98;13.45;;;24.80;60.50;;;;;;5071913;28;20574;-50
2021/06/09 09:59:05;;;;;;;15.73;13.90;;;24.90;59.30;;;;;;5069261;28;20037;-54
2021/06/09 10:01:35;;;;;;;16.77;13.88;;;25.00;59.00;;;;;;5079392;28;20051;-53
2021/06/09 10:04:03;;;;;;;15.50;13.90;;;25.00;59.20;;;;;;5069216;28;20044;-54
2021/06/09 10:06:39;;;;;;;20.73;18.48;;;24.90;59.50;;;;;;5072343;28;20040;-52
2021/06/09 10:09:14;;;;;;;18.67;16.75;;;24.60;59.40;;;;;;5072503;28;20039;-51
2021/06/09 10:11:46;;;;;;;18.88;16.63;;;24.50;59.80;;;;;;5074483;28;20292;-51
2021/06/09 10:14:27;;;;;;;16.83;15.03;;;24.50;60.80;;;;;;5074040;28;20045;-50
2021/06/09 10:17:03;;;;;;;19.10;16.45;;;24.60;61.50;;;;;;5071338;28;20760;-49
2021/06/09 10:19:34;;;;;;;17.25;15.43;;;24.50;59.90;;;;;;5056470;28;20033;-53
2021/06/09 10:22:05;;;;;;;19.38;17.15;;;24.50;61.20;;;;;;5072160;28;20041;-52
2021/06/09 10:24:45;;;;;;;18.90;16.42;;;24.60;60.40;;;;;;5068511;28;20056;-52
2021/06/09 10:27:12;;;;;;;16.90;15.10;;;24.70;59.80;;;;;;5072361;28;20032;-52
2021/06/09 10:29:38;;;;;;;22.25;18.00;;;24.90;59.20;;;;;;5072374;28;20110;-53
2021/06/09 10:32:09;;;;;;;24.25;18.00;;;25.10;59.00;;;;;;5071549;28;20040;-51
2021/06/09 10:34:36;;;;;;;21.92;17.05;;;25.30;58.60;;;;;;5072354;28;20044;-53
2021/06/09 10:37:09;;;;;;;20.33;17.17;;;25.40;59.40;;;;;;5073094;28;20032;-52
2021/06/09 10:39:38;;;;;;;18.13;15.68;;;25.40;57.70;;;;;;5071872;28;20072;-51
2021/06/09 10:42:08;;;;;;;18.67;16.65;;;25.50;57.30;;;;;;5054127;28;20038;-50
2021/06/09 10:44:37;;;;;;;17.77;15.98;;;25.60;57.30;;;;;;5069436;28;20086;-54
2021/06/09 10:47:12;;;;;;;16.83;15.13;;;25.60;56.90;;;;;;5072220;28;20438;-55
2021/06/09 10:49:41;;;;;;;19.48;17.38;;;25.70;56.10;;;;;;5059060;28;20057;-56
2021/06/09 10:52:07;;;;;;;19.98;17.30;;;25.80;53.90;;;;;;5071789;28;20036;-55
2021/06/09 10:54:33;;;;;;;21.45;18.15;;;25.70;53.80;;;;;;5071220;28;20559;-56
2021/06/09 10:57:03;;;;;;;18.40;14.88;;;25.60;55.80;;;;;;5073225;28;20059;-56
2021/06/09 10:59:31;;;;;;;19.02;17.05;;;25.60;58.10;;;;;;5068652;28;20071;-55
2021/06/09 11:02:10;;;;;;;19.58;17.48;;;25.70;58.50;;;;;;5073249;28;20037;-56
2021/06/09 11:04:43;;;;;;;19.27;17.27;;;25.70;58.00;;;;;;5067609;28;20051;-56
2021/06/09 11:07:28;;;;;;;20.83;18.83;;;25.50;57.80;;;;;;5041308;28;20413;-56
2021/06/09 11:09:54;;;;;;;21.50;19.30;;;25.20;58.60;;;;;;5057573;28;20119;-55
2021/06/09 11:12:22;;;;;;;21.60;17.10;;;25.00;59.50;;;;;;5071437;28;20052;-56
2021/06/09 11:14:55;;;;;;;19.23;17.17;;;24.90;60.20;;;;;;5064490;28;20041;-55
2021/06/09 11:17:37;;;;;;;21.17;16.77;;;24.90;59.70;;;;;;5062284;28;20098;-56
2021/06/09 11:20:34;;;;;;;17.98;15.93;;;24.90;59.40;;;;;;5056818;28;20039;-55
2021/06/09 11:23:05;;;;;;;17.08;15.27;;;25.00;56.90;;;;;;5048549;28;20065;-55
2021/06/09 11:25:33;;;;;;;18.15;15.85;;;25.10;58.40;;;;;;5070474;28;20190;-56
2021/06/09 11:28:07;;;;;;;16.42;14.57;;;25.10;57.40;;;;;;5070872;28;20500;-55
2021/06/09 11:30:32;;;;;;;16.48;14.50;;;25.20;56.90;;;;;;5071889;28;20047;-54
2021/06/09 11:33:01;;;;;;;16.50;14.80;;;25.30;57.00;;;;;;5070707;28;20053;-54
2021/06/09 11:35:48;;;;;;;17.08;13.20;;;25.40;56.40;;;;;;5054771;28;20050;-55
2021/06/09 11:38:16;;;;;;;16.25;13.57;;;25.60;57.50;;;;;;5060274;28;20141;-52
2021/06/09 11:40:51;;;;;;;15.95;14.15;;;25.70;57.20;;;;;;5065716;28;20067;-54
2021/06/09 11:43:38;;;;;;;16.40;14.23;;;25.80;56.30;;;;;;5069703;28;20659;-56
2021/06/09 11:46:08;;;;;;;17.50;15.75;;;25.90;55.20;;;;;;5070209;28;20516;-56
2021/06/09 11:48:35;;;;;;;16.05;14.45;;;26.00;55.20;;;;;;5070511;28;20048;-54
2021/06/09 11:51:24;;;;;;;18.75;13.55;;;26.10;54.80;;;;;;5067780;28;20535;-56
2021/06/09 11:53:53;;;;;;;17.30;15.40;;;26.20;56.50;;;;;;5074437;28;20040;-55
2021/06/09 11:56:41;;;;;;;15.30;13.80;;;26.30;56.10;;;;;;5070257;28;20036;-54
2021/06/09 11:59:20;;;;;;;16.52;14.10;;;26.40;55.70;;;;;;5063518;28;20163;-56
2021/06/09 12:01:47;;;;;;;16.38;14.68;;;26.50;55.10;;;;;;5081554;28;20490;-56
2021/06/09 12:04:20;;;;;;;17.85;16.15;;;26.50;54.00;;;;;;5064534;28;20094;-55
2021/06/09 12:06:49;;;;;;;18.55;15.80;;;26.50;54.50;;;;;;5063933;28;20546;-56
2021/06/09 12:09:18;;;;;;;18.40;15.93;;;26.50;56.30;;;;;;5070932;28;20040;-56
2021/06/09 12:11:49;;;;;;;19.65;17.58;;;26.30;55.60;;;;;;5076790;28;20048;-56
2021/06/09 12:14:24;;;;;;;19.38;17.38;;;26.00;55.50;;;;;;5059268;28;20408;-54
2021/06/09 12:16:54;;;;;;;19.55;16.60;;;25.60;55.90;;;;;;5072189;28;20045;-55
2021/06/09 12:19:28;;;;;;;18.02;16.13;;;25.40;57.00;;;;;;5053677;28;20048;-56
2021/06/09 12:22:00;;;;;;;20.25;18.15;;;25.30;57.50;;;;;;5069942;28;20041;-55
2021/06/09 12:24:26;;;;;;;20.60;18.40;;;25.20;57.50;;;;;;5056366;28;20106;-54
2021/06/09 12:26:55;;;;;;;22.20;20.05;;;25.10;58.10;;;;;;5071176;28;20048;-56
2021/06/09 12:29:26;;;;;;;21.48;18.20;;;25.10;58.90;;;;;;5083743;28;20046;-55
2021/06/09 12:31:53;;;;;;;21.10;18.77;;;25.10;58.30;;;;;;5070415;28;20472;-56
2021/06/09 12:34:21;;;;;;;19.52;17.63;;;25.20;58.00;;;;;;5088971;28;20078;-55
2021/06/09 12:37:08;;;;;;;17.75;15.57;;;25.30;57.50;;;;;;5071661;28;20110;-56
2021/06/09 12:39:38;;;;;;;17.50;14.05;;;25.40;56.80;;;;;;5056802;28;20091;-56
2021/06/09 12:42:15;;;;;;;18.90;17.00;;;25.50;56.30;;;;;;5065620;28;20037;-56
2021/06/09 12:44:49;;;;;;;18.23;15.52;;;25.60;54.90;;;;;;5062200;28;20044;-53
2021/06/09 12:47:28;;;;;;;16.10;14.00;;;25.60;55.40;;;;;;5065117;28;20041;-55
2021/06/09 12:50:24;;;;;;;14.20;12.80;;;25.60;53.80;;;;;;5060906;28;20049;-55
2021/06/09 12:52:57;;;;;;;14.52;12.30;;;25.70;53.10;;;;;;5059245;28;20417;-55